createdAt,value
2022-10-26T00:01:26.003Z,13.08
2022-10-26T00:03:59.293Z,13.08
2022-10-26T00:06:33.473Z,13.09
2022-10-26T00:09:05.926Z,13.08
2022-10-26T00:11:38.292Z,13.07
2022-10-26T00:14:11.726Z,13.07
2022-10-26T00:16:44.472Z,13.11
2022-10-26T00:19:17.675Z,13.11
2022-10-26T00:21:50.156Z,13.09
2022-10-26T00:24:23.158Z,13.09
2022-10-26T00:26:55.608Z,13.11
2022-10-26T00:29:28.262Z,13.12
2022-10-26T00:32:01.236Z,13.11
2022-10-26T00:34:35.053Z,13.10
2022-10-26T00:37:07.530Z,13.10
2022-10-26T00:39:40.578Z,13.09
2022-10-26T00:42:16.674Z,13.08
2022-10-26T00:45:02.196Z,13.08
2022-10-26T00:47:42.308Z,13.10
2022-10-26T00:50:31.719Z,13.11
2022-10-26T00:53:05.460Z,13.11
2022-10-26T00:55:41.780Z,13.10
2022-10-26T00:58:14.148Z,13.10
2022-10-26T01:00:46.554Z,13.09
2022-10-26T01:03:19.204Z,13.07
2022-10-26T01:05:52.444Z,13.05
2022-10-26T01:08:25.166Z,13.06
2022-10-26T01:10:58.653Z,13.07
2022-10-26T01:13:32.182Z,13.06
2022-10-26T01:16:28.249Z,13.09
2022-10-26T01:19:47.937Z,13.04
2022-10-26T01:22:30.041Z,13.06
2022-10-26T01:25:19.998Z,13.06
2022-10-26T01:27:54.114Z,13.07
2022-10-26T01:30:42.427Z,13.07
2022-10-26T01:33:37.601Z,13.09
2022-10-26T01:36:33.781Z,13.11
2022-10-26T01:39:35.086Z,13.12
2022-10-26T01:42:07.635Z,13.12
2022-10-26T01:44:44.291Z,13.12
2022-10-26T01:47:17.684Z,13.12
2022-10-26T01:49:54.550Z,13.14
2022-10-26T01:52:27.655Z,13.12
2022-10-26T01:55:10.139Z,13.13
2022-10-26T01:57:42.618Z,13.13
2022-10-26T02:00:15.524Z,13.11
2022-10-26T02:03:13.555Z,13.12
2022-10-26T02:06:13.684Z,13.13
2022-10-26T02:09:14.187Z,13.12
2022-10-26T02:11:50.723Z,13.11
2022-10-26T02:14:46.785Z,13.10
2022-10-26T02:17:52.257Z,13.09
2022-10-26T02:20:29.972Z,13.09
2022-10-26T02:23:05.931Z,13.12
2022-10-26T02:25:42.359Z,13.13
2022-10-26T02:28:19.853Z,13.16
2022-10-26T02:30:54.987Z,13.16
2022-10-26T02:33:28.715Z,13.15
2022-10-26T02:36:03.535Z,13.14
2022-10-26T02:38:36.419Z,13.16
2022-10-26T02:41:09.909Z,13.15
2022-10-26T02:43:48.983Z,13.14
2022-10-26T02:46:23.633Z,13.08
2022-10-26T02:48:56.766Z,13.05
2022-10-26T02:51:45.682Z,13.05
2022-10-26T02:54:36.091Z,13.04
2022-10-26T02:57:18.546Z,13.06
2022-10-26T02:59:50.998Z,13.07
2022-10-26T03:02:23.641Z,13.08
2022-10-26T03:04:56.068Z,13.08
2022-10-26T03:07:30.471Z,13.08
2022-10-26T03:10:03.493Z,13.07
2022-10-26T03:12:37.382Z,13.05
2022-10-26T03:15:11.699Z,13.05
2022-10-26T03:17:45.336Z,13.05
2022-10-26T03:20:18.890Z,13.03
2022-10-26T03:22:51.626Z,13.00
2022-10-26T03:25:27.554Z,13.01
2022-10-26T03:28:02.162Z,13.01
2022-10-26T03:30:34.603Z,13.01
2022-10-26T03:33:07.017Z,13.02
2022-10-26T03:35:40.717Z,13.03
2022-10-26T03:38:15.936Z,13.03
2022-10-26T03:40:49.867Z,13.01
2022-10-26T03:43:22.848Z,13.03
2022-10-26T03:45:55.289Z,13.05
2022-10-26T03:48:28.829Z,13.05
2022-10-26T03:51:01.576Z,13.04
2022-10-26T03:53:35.630Z,13.04
2022-10-26T03:56:09.271Z,13.05
2022-10-26T03:58:43.681Z,13.07
2022-10-26T04:01:16.622Z,13.10
2022-10-26T04:03:50.883Z,13.10
2022-10-26T04:06:24.658Z,13.10
2022-10-26T04:08:59.348Z,13.11
2022-10-26T04:11:31.973Z,13.12
2022-10-26T04:14:04.512Z,13.14
2022-10-26T04:16:37.088Z,13.15
2022-10-26T04:19:11.314Z,13.14
2022-10-26T04:21:44.821Z,13.16
2022-10-26T04:24:17.566Z,13.16
2022-10-26T04:26:50.656Z,13.16
2022-10-26T04:29:24.221Z,13.15
2022-10-26T04:31:56.882Z,13.17
2022-10-26T04:34:29.936Z,13.14
2022-10-26T04:37:02.926Z,13.11
2022-10-26T04:39:36.828Z,13.10
2022-10-26T04:42:09.235Z,13.10
2022-10-26T04:44:43.655Z,13.10
2022-10-26T04:47:16.723Z,13.09
2022-10-26T04:49:49.097Z,13.11
2022-10-26T04:52:21.695Z,13.19
2022-10-26T04:54:54.747Z,13.22
2022-10-26T04:57:27.619Z,13.26
2022-10-26T05:00:00.558Z,13.29
2022-10-26T05:02:34.952Z,13.35
2022-10-26T05:05:09.969Z,13.36
2022-10-26T05:07:41.716Z,13.39
2022-10-26T05:10:15.415Z,13.44
2022-10-26T05:13:01.129Z,13.46
2022-10-26T05:15:34.875Z,13.46
2022-10-26T05:18:09.571Z,13.47
2022-10-26T05:20:42.284Z,13.48
2022-10-26T05:23:16.407Z,13.49
2022-10-26T05:25:50.611Z,13.50
2022-10-26T05:28:23.290Z,13.53
2022-10-26T05:30:56.474Z,13.54
2022-10-26T05:33:29.286Z,13.55
2022-10-26T05:36:02.981Z,13.54
2022-10-26T05:38:35.630Z,13.57
2022-10-26T05:41:08.259Z,13.57
2022-10-26T05:43:41.352Z,13.60
2022-10-26T05:46:13.893Z,13.59
2022-10-26T05:48:47.594Z,13.61
2022-10-26T05:51:20.525Z,13.64
2022-10-26T05:53:56.813Z,13.65
2022-10-26T05:56:37.742Z,13.68
2022-10-26T05:59:29.845Z,13.69
2022-10-26T06:02:35.341Z,13.71
2022-10-26T06:05:10.921Z,13.75
2022-10-26T06:07:44.232Z,13.81
2022-10-26T06:10:19.193Z,13.83
2022-10-26T06:12:52.563Z,13.86
2022-10-26T06:15:26.009Z,13.94
2022-10-26T06:18:12.515Z,13.98
2022-10-26T06:21:26.069Z,14.04
2022-10-26T06:24:34.146Z,14.09
2022-10-26T06:27:30.820Z,14.16
2022-10-26T06:30:12.995Z,14.23
2022-10-26T06:32:50.211Z,14.29
2022-10-26T06:35:33.260Z,14.34
2022-10-26T06:38:11.271Z,14.40
2022-10-26T06:40:46.180Z,14.45
2022-10-26T06:43:26.964Z,14.57
2022-10-26T06:46:22.270Z,14.74
2022-10-26T06:49:32.915Z,14.93
2022-10-26T06:52:19.296Z,15.15
2022-10-26T06:54:56.931Z,15.24
2022-10-26T06:57:38.441Z,15.27
2022-10-26T07:00:23.316Z,15.31
2022-10-26T07:02:55.542Z,15.35
2022-10-26T07:05:29.060Z,15.34
2022-10-26T07:08:03.889Z,15.29
2022-10-26T07:10:38.117Z,15.30
2022-10-26T07:13:12.399Z,15.29
2022-10-26T07:15:46.728Z,15.24
2022-10-26T07:18:19.877Z,15.23
2022-10-26T07:20:52.461Z,15.23
2022-10-26T07:23:26.151Z,15.24
2022-10-26T10:41:48.087Z,17.93
2022-10-26T10:44:29.905Z,17.75
2022-10-26T10:47:07.568Z,17.52
2022-10-26T10:49:43.862Z,17.29
2022-10-26T10:52:31.631Z,17.16
2022-10-26T10:55:20.831Z,17.05
2022-10-26T10:57:58.833Z,16.92
2022-10-26T11:00:33.058Z,16.72
2022-10-26T11:03:43.827Z,16.61
2022-10-26T11:06:18.765Z,16.67
2022-10-26T11:09:06.335Z,17.09
2022-10-26T11:11:55.858Z,17.89
2022-10-26T11:14:36.574Z,18.24
2022-10-26T11:17:30.093Z,18.40
2022-10-26T11:20:30.675Z,18.70
2022-10-26T11:23:19.290Z,19.28
2022-10-26T11:26:00.060Z,19.87
2022-10-26T11:28:52.644Z,20.36
2022-10-26T11:31:31.225Z,20.92
2022-10-26T11:34:15.113Z,21.37
2022-10-26T11:36:52.196Z,21.08
2022-10-26T11:39:41.974Z,21.08
2022-10-26T11:42:36.103Z,20.89
2022-10-26T11:45:30.193Z,20.61
2022-10-26T11:48:25.817Z,20.14
2022-10-26T11:50:59.379Z,19.63
2022-10-26T11:53:41.075Z,19.20
2022-10-26T11:56:21.755Z,18.83
2022-10-26T11:58:55.041Z,18.61
2022-10-26T12:01:32.518Z,18.45
2022-10-26T12:04:04.759Z,18.29
2022-10-26T12:06:37.623Z,18.21
2022-10-26T12:09:16.409Z,18.15
2022-10-26T12:12:24.870Z,18.07
2022-10-26T12:15:09.015Z,18.06
2022-10-26T12:18:08.313Z,18.02
2022-10-26T12:21:19.197Z,17.96
2022-10-26T12:24:03.704Z,17.90
2022-10-26T12:26:58.988Z,17.80
2022-10-26T12:29:38.430Z,17.66
2022-10-26T12:32:39.181Z,17.55
2022-10-26T17:14:40.324Z,13.99
2022-10-26T17:17:13.756Z,13.91
2022-10-26T17:19:51.031Z,13.87
2022-10-26T17:22:26.360Z,13.83
2022-10-26T17:24:59.685Z,13.81
2022-10-26T17:27:33.172Z,13.81
2022-10-26T17:30:09.249Z,13.78
2022-10-26T17:32:57.203Z,13.77
2022-10-26T17:35:29.713Z,13.74
2022-10-26T17:38:03.805Z,13.72
2022-10-26T17:40:44.239Z,13.72
2022-10-26T17:43:24.088Z,13.71
2022-10-26T17:46:12.275Z,13.70
2022-10-26T17:48:56.131Z,13.67
2022-10-26T17:51:31.188Z,13.66
2022-10-26T17:54:03.902Z,13.66
2022-10-26T17:56:36.627Z,13.64
2022-10-26T17:59:12.363Z,13.65
2022-10-26T18:01:45.480Z,13.66
2022-10-26T18:04:18.688Z,13.65
2022-10-26T18:06:52.703Z,13.65
2022-10-26T18:09:25.538Z,13.64
2022-10-26T18:12:00.290Z,13.63
2022-10-26T18:14:34.678Z,13.62
2022-10-26T18:17:07.397Z,13.62
2022-10-26T18:19:39.938Z,13.62
2022-10-26T18:22:12.717Z,13.68
2022-10-26T18:24:45.194Z,13.72
2022-10-26T18:27:17.718Z,13.73
2022-10-26T18:29:50.176Z,13.70
2022-10-26T18:32:24.044Z,13.70
2022-10-26T18:34:57.750Z,13.68
2022-10-26T18:37:30.305Z,13.67
2022-10-26T18:40:04.043Z,13.66
2022-10-26T18:42:40.995Z,13.67
2022-10-26T18:45:14.025Z,13.65
2022-10-26T18:47:47.254Z,13.62
2022-10-26T18:50:19.841Z,13.59
2022-10-26T18:52:52.332Z,13.57
2022-10-26T18:55:25.462Z,13.56
2022-10-26T18:58:03.296Z,13.54
2022-10-26T19:00:41.776Z,13.50
2022-10-26T19:03:16.239Z,13.47
2022-10-26T19:05:48.821Z,13.46
2022-10-26T19:08:24.529Z,13.43
2022-10-26T19:11:03.737Z,13.40
2022-10-26T19:13:39.900Z,13.37
2022-10-26T19:16:43.989Z,13.36
2022-10-26T19:18:58.756Z,13.38
2022-10-26T19:21:35.309Z,13.37
2022-10-26T19:24:10.817Z,13.39
2022-10-26T19:26:46.938Z,13.36
2022-10-26T19:29:22.556Z,13.33
2022-10-26T19:31:57.876Z,13.31
2022-10-26T19:34:33.950Z,13.31
2022-10-26T19:37:08.724Z,13.31
2022-10-26T19:39:44.709Z,13.31
2022-10-26T19:42:21.641Z,13.31
2022-10-26T19:45:21.741Z,13.32
2022-10-26T19:47:55.688Z,13.32
2022-10-26T19:50:29.012Z,13.32
2022-10-26T19:53:03.817Z,13.30
2022-10-26T19:55:37.737Z,13.30
2022-10-26T19:58:10.141Z,13.27
2022-10-26T20:00:43.451Z,13.27
2022-10-26T20:03:17.394Z,13.25
2022-10-26T20:05:56.277Z,13.23
2022-10-26T20:08:24.726Z,13.22
2022-10-26T20:10:58.376Z,13.21
2022-10-26T20:13:30.725Z,13.20
2022-10-26T20:16:03.782Z,13.16
2022-10-26T20:18:39.999Z,13.16
2022-10-26T20:21:15.017Z,13.15
2022-10-26T20:23:47.473Z,13.15
2022-10-26T20:26:21.308Z,13.14
2022-10-26T20:28:53.812Z,13.12
2022-10-26T20:31:27.170Z,13.09
2022-10-26T20:34:01.158Z,13.03
2022-10-26T20:36:35.173Z,13.00
2022-10-26T20:39:08.264Z,12.98
2022-10-26T20:41:46.847Z,12.96
2022-10-26T20:44:24.610Z,12.91
2022-10-26T20:46:59.235Z,12.90
2022-10-26T20:49:32.042Z,12.88
2022-10-26T20:52:21.032Z,12.86
2022-10-26T20:54:54.607Z,12.83
2022-10-26T20:57:30.744Z,12.80
2022-10-26T21:00:09.187Z,12.79
2022-10-26T21:02:41.833Z,12.78
2022-10-26T21:05:18.100Z,12.76
2022-10-26T21:07:51.453Z,12.76
2022-10-26T21:10:25.422Z,12.77
2022-10-26T21:12:59.736Z,12.77
2022-10-26T21:15:32.253Z,12.74
2022-10-26T21:18:05.131Z,12.73
2022-10-26T21:20:37.812Z,12.70
2022-10-26T21:23:10.246Z,12.67
2022-10-26T21:25:43.919Z,12.61
2022-10-26T21:28:16.729Z,12.61
2022-10-26T21:30:49.107Z,12.58
2022-10-26T21:33:24.082Z,12.58
2022-10-26T21:35:56.410Z,12.55
2022-10-26T21:38:29.967Z,12.53
2022-10-26T21:41:19.109Z,12.52
2022-10-26T21:44:03.242Z,12.52
2022-10-26T21:46:36.285Z,12.52
2022-10-26T21:49:08.751Z,12.52
2022-10-26T21:51:43.554Z,12.51
2022-10-26T21:54:17.008Z,12.49
2022-10-26T21:56:50.457Z,12.47
2022-10-26T21:59:23.033Z,12.43
2022-10-26T22:01:55.646Z,12.40
2022-10-26T22:04:28.394Z,12.38
2022-10-26T22:07:01.080Z,12.33
2022-10-26T22:09:40.595Z,12.32
2022-10-26T22:12:08.794Z,12.31
2022-10-26T22:14:41.870Z,12.31
2022-10-26T22:17:14.688Z,12.28
2022-10-26T22:19:49.086Z,12.27
2022-10-26T22:22:22.166Z,12.25
2022-10-26T22:24:55.204Z,12.22
2022-10-26T22:27:28.727Z,12.19
2022-10-26T22:30:01.842Z,12.16
2022-10-26T22:32:34.968Z,12.12
2022-10-26T22:35:24.807Z,12.10
2022-10-26T22:37:43.485Z,12.06
2022-10-26T22:40:15.912Z,12.03
2022-10-26T22:42:49.052Z,12.00
2022-10-26T22:45:22.361Z,11.99
2022-10-26T22:47:55.842Z,11.96
2022-10-26T22:50:29.326Z,11.96
2022-10-26T22:53:01.752Z,11.95
2022-10-26T22:55:34.632Z,11.94
2022-10-26T22:58:07.986Z,11.93
2022-10-26T23:00:40.889Z,11.89
2022-10-26T23:03:14.257Z,11.86
2022-10-26T23:05:50.072Z,11.82
2022-10-26T23:08:23.099Z,11.81
2022-10-26T23:11:17.248Z,11.81
2022-10-26T23:13:57.092Z,11.83
2022-10-26T23:16:31.164Z,11.86
2022-10-26T23:19:04.600Z,11.87
2022-10-26T23:21:37.654Z,11.86
2022-10-26T23:24:12.072Z,11.86
2022-10-26T23:26:44.899Z,11.85
2022-10-26T23:29:18.449Z,11.84
2022-10-26T23:31:50.783Z,11.84
2022-10-26T23:34:24.071Z,11.82
2022-10-26T23:36:57.544Z,11.79
2022-10-26T23:39:29.949Z,11.77
2022-10-26T23:42:04.202Z,11.74
2022-10-26T23:44:36.692Z,11.66
2022-10-26T23:47:09.084Z,11.62
2022-10-26T23:49:44.419Z,11.60
2022-10-26T23:52:17.023Z,11.57
2022-10-26T23:57:23.804Z,11.52
2022-10-26T23:59:56.449Z,11.48
